메인 페이지
METAR-TAF:

METAR-TAF

공항 :

실비오 페티로시 국제공항

아순시온, 파라과이

위도: 25-16S, 경도: 057-38W, 고도: 101m

현재 날씨관측

예보는 50분 전, 02:00시(UTC)에 발표되었습니다.
무풍
온도 22°C
습도 88%
기압 1010 hPa
시정 10km 이상
1500m 미만 상공 구름 및 적란운 없음

METAR: SGAS 130200Z 00000KT CAVOK 22/20 Q1010

시각: 23:50 (02:50 UTC)

예보

예보는 4 시간 20분 전, 22:30시(UTC)에 발표되었습니다.
예보 대상 시간: 13일 00시부터 14일 00시까지 (UTC)
14kt
시정 10km 이상
고도 2000ft 상공 구름 많음
전환 중
13일 03시부터 13일 06시까지 (UTC)
북북동7kt
시정 10km 이상
고도 3300ft 상공 구름 보통
확률 30%
13일 18시부터 13일 21시까지 (UTC)
북동12kt
시정: 8000m
고도 2000ft 상공 구름 많음
고도 4000ft 상공 구름 조금, 적란운.
뇌우, 소나기

TAF: SGAS 122230Z 1300/1400 09014KT 9999 BKN020 TX37/1219Z TN23/1309Z BECMG 1303/1306 03007KT 9999 SCT033 PROB30 1318/1321 05012KT 8000 TS SHRA BKN020 FEW040CB

4,000개 이상의 공항 관측 자료 및 예보 (METAR 및 TAF 보고).

지도상에서 검색 가능한 기상관측소가 노란 점과 빨간 점으로 표시되어 있습니다.

기상관측소 명을 보려면 표시 위로 마우스를 이동하세요.

날씨 관측과 예보를 보려면 클릭하세요.

지도 변경 : 확대하려면 엑스 표시가 있는 녹색 버튼, 축소하려면 빼기 표시가 있는 녹색 버튼, 다음 페이지의 지도를 보려면 녹색 화살표를 클릭하세요.


METAR-TAF: